Tall Timbers, Maryland
Current Conditions -  °F | °C
As of 11:53 AM on Friday 21 Nov 2014 (Local Time) from KNUI Reporting Station
Clear Clear  
Wind Chill: 28°   Ceiling: Unl
Heat Index: 37°   Visibility: 10mi
Dew Point:   Wind: 14mph
Humidity: 29%   Direction: 280°W
Pressure: 30.44"   Gusts: 18mph
Location:  38.17°N, 76.55°W
Report Text: KNUI 211653Z AUTO 28012G16KT 10SM CLR 03/M14 A3044 RMK AO2 SLP308 T00281139
Loading
Personal Weather Stations






























Interactive Weather Map New forecast layout! Learn more

10-Day Weather Forecast

Advertisements
Track Severe Weather on mobile